Time;durP1;ratioP1;P1;durP2;ratioP2;P2;SDS_P1;SDS_P2;PMS_P1;PMS_P2;Temp;Humidity;BMP_temperature;BMP_pressure;BME280_temperature;BME280_humidity;BME280_pressure;Samples;Min_cycle;Max_cycle;Signal;HPM_P1;HPM_P2
2022/12/01 00:01:57;;;;;;;0.70;0.70;;;14.40;89.20;;;;;;5155006;27;20230;-64
2022/12/01 00:04:47;;;;;;;0.40;0.40;;;14.40;89.80;;;;;;5154265;27;20259;-64
2022/12/01 00:07:36;;;;;;;0.40;0.40;;;14.40;89.50;;;;;;5155457;27;20302;-64
2022/12/01 00:10:24;;;;;;;0.40;0.40;;;14.40;90.00;;;;;;5154282;27;20194;-64
2022/12/01 00:13:13;;;;;;;1.43;1.33;;;14.30;89.70;;;;;;5154988;27;20259;-65
2022/12/01 00:16:10;;;;;;;0.40;0.40;;;14.40;90.00;;;;;;5154277;27;20281;-63
2022/12/01 00:18:58;;;;;;;0.40;0.40;;;14.30;89.70;;;;;;5155302;27;20210;-64
2022/12/01 00:21:46;;;;;;;0.40;0.40;;;14.30;89.50;;;;;;5154930;27;20415;-65
2022/12/01 00:24:35;;;;;;;0.40;0.40;;;14.30;89.40;;;;;;5154387;27;20226;-64
2022/12/01 00:27:23;;;;;;;0.40;0.40;;;14.30;89.60;;;;;;5155212;27;20198;-63
2022/12/01 00:30:12;;;;;;;0.40;0.40;;;14.30;90.00;;;;;;5154692;27;20254;-64
2022/12/01 00:33:00;;;;;;;0.40;0.40;;;14.30;89.80;;;;;;5154538;27;20300;-64
2022/12/01 00:35:49;;;;;;;0.47;0.47;;;14.30;90.10;;;;;;5154890;27;20230;-64
2022/12/01 00:38:37;;;;;;;0.80;0.80;;;14.30;89.90;;;;;;5154649;27;20273;-64
2022/12/01 00:41:26;;;;;;;0.40;0.40;;;14.40;89.50;;;;;;5154101;27;20225;-64
2022/12/01 00:44:14;;;;;;;0.40;0.40;;;14.40;90.00;;;;;;5154425;27;20214;-63
2022/12/01 00:47:02;;;;;;;0.40;0.40;;;14.40;89.70;;;;;;5154363;27;20316;-64
2022/12/01 00:49:51;;;;;;;5.00;3.03;;;14.40;89.40;;;;;;5154427;27;20201;-64
2022/12/01 00:52:39;;;;;;;0.40;0.40;;;14.40;88.90;;;;;;5154180;27;20690;-64
2022/12/01 00:55:27;;;;;;;0.40;0.40;;;14.40;89.50;;;;;;5153738;27;20721;-65
2022/12/01 00:58:16;;;;;;;0.50;0.50;;;14.50;89.30;;;;;;5153945;27;20293;-64
2022/12/01 01:01:04;;;;;;;0.40;0.40;;;14.50;89.00;;;;;;5154383;27;20249;-64
2022/12/01 01:03:53;;;;;;;0.40;0.40;;;14.40;88.90;;;;;;5154809;27;20701;-63
2022/12/01 01:06:42;;;;;;;0.50;0.50;;;14.40;89.10;;;;;;5154237;27;20247;-64
2022/12/01 01:09:31;;;;;;;0.40;0.40;;;14.40;89.30;;;;;;5153608;27;20201;-64
2022/12/01 01:12:19;;;;;;;0.40;0.40;;;14.50;89.50;;;;;;5153400;27;20198;-64
2022/12/01 01:15:09;;;;;;;0.40;0.40;;;14.50;89.40;;;;;;5153371;27;20237;-64
2022/12/01 01:17:57;;;;;;;0.40;0.40;;;14.40;89.40;;;;;;5154270;27;20198;-64
2022/12/01 01:20:55;;;;;;;3.03;1.90;;;14.40;89.30;;;;;;5153370;27;20300;-64
2022/12/01 01:23:43;;;;;;;0.40;0.40;;;14.40;89.10;;;;;;5154814;27;20636;-64
2022/12/01 01:26:32;;;;;;;0.60;0.60;;;14.40;88.90;;;;;;5154253;27;20285;-64
2022/12/01 01:29:20;;;;;;;1.00;1.00;;;14.40;88.80;;;;;;5153370;27;20250;-63
2022/12/01 01:32:10;;;;;;;0.50;0.50;;;14.40;89.40;;;;;;5154310;27;20194;-64
2022/12/01 01:34:58;;;;;;;0.40;0.40;;;14.40;88.90;;;;;;5154125;27;20760;-64
2022/12/01 01:37:46;;;;;;;0.40;0.40;;;14.30;89.00;;;;;;5153527;27;20627;-64
2022/12/01 01:40:34;;;;;;;0.83;0.83;;;14.30;89.20;;;;;;5152689;27;20700;-64
2022/12/01 01:43:41;;;;;;;0.40;0.40;;;14.30;89.10;;;;;;5153658;27;20245;-64
2022/12/01 01:46:31;;;;;;;0.40;0.40;;;14.30;89.00;;;;;;5152967;27;20454;-63
2022/12/01 01:49:21;;;;;;;0.40;0.40;;;14.30;89.70;;;;;;5153713;27;20198;-64
2022/12/01 01:52:10;;;;;;;0.50;0.50;;;14.30;89.20;;;;;;5154147;27;20194;-65
2022/12/01 01:54:58;;;;;;;0.40;0.40;;;14.30;89.00;;;;;;5153663;27;20343;-65
2022/12/01 01:57:46;;;;;;;0.40;0.40;;;14.30;89.70;;;;;;5153987;27;20215;-65
2022/12/01 02:00:35;;;;;;;0.40;0.40;;;14.30;89.20;;;;;;5153416;27;20214;-63
2022/12/01 02:03:25;;;;;;;0.40;0.40;;;14.30;89.20;;;;;;5152875;27;20282;-64
2022/12/01 02:06:15;;;;;;;0.40;0.40;;;14.30;89.60;;;;;;5152744;27;20652;-64
2022/12/01 02:09:03;;;;;;;0.40;0.40;;;14.30;89.50;;;;;;5152173;27;20758;-64
2022/12/01 02:12:02;;;;;;;0.40;0.40;;;14.30;89.60;;;;;;5156880;27;20209;-64
2022/12/01 02:15:03;;;;;;;0.40;0.40;;;14.30;89.40;;;;;;5156831;27;20225;-64
2022/12/01 02:18:00;;;;;;;0.40;0.40;;;14.30;89.20;;;;;;5157757;27;20230;-63
2022/12/01 02:21:18;;;;;;;0.40;0.40;;;14.40;89.50;;;;;;5156509;27;20210;-63
2022/12/01 02:24:49;;;;;;;0.40;0.40;;;14.40;89.10;;;;;;5156879;27;20229;-66
2022/12/01 02:27:51;;;;;;;0.40;0.40;;;14.40;88.90;;;;;;5150855;27;20665;-64
2022/12/01 02:30:43;;;;;;;0.40;0.40;;;14.40;89.20;;;;;;5135803;27;20270;-64
2022/12/01 02:33:38;;;;;;;3.90;1.80;;;14.40;89.40;;;;;;5135342;27;20226;-68
2022/12/01 02:36:34;;;;;;;0.50;0.50;;;14.40;89.00;;;;;;5136920;27;20256;-64
2022/12/01 02:39:29;;;;;;;0.40;0.40;;;14.50;88.90;;;;;;5135656;27;20425;-64
2022/12/01 02:45:36;;;;;;;0.40;0.40;;;14.40;89.20;;;;;;5136153;27;20226;-64
2022/12/01 02:48:30;;;;;;;0.50;0.50;;;14.40;89.30;;;;;;5136159;27;20209;-68
2022/12/01 02:51:22;;;;;;;2.07;1.87;;;14.40;88.90;;;;;;5136390;27;20197;-65
2022/12/01 02:54:12;;;;;;;3.70;3.50;;;14.40;88.40;;;;;;5135696;27;20214;-64
2022/12/01 02:57:00;;;;;;;0.50;0.50;;;14.40;88.80;;;;;;5135875;27;20205;-64
2022/12/01 02:59:51;;;;;;;0.50;0.50;;;14.30;89.10;;;;;;5135572;27;20637;-64
2022/12/01 03:02:52;;;;;;;0.40;0.40;;;14.30;88.80;;;;;;5135350;27;20209;-64
2022/12/01 03:05:48;;;;;;;0.40;0.40;;;14.30;88.70;;;;;;5135417;27;20199;-64
2022/12/01 03:08:47;;;;;;;0.40;0.40;;;14.30;88.70;;;;;;5135249;27;20278;-64
2022/12/01 03:11:42;;;;;;;0.40;0.40;;;14.30;88.50;;;;;;5135297;27;20201;-66
2022/12/01 03:14:38;;;;;;;0.40;0.40;;;14.20;88.80;;;;;;5134651;27;20245;-64
2022/12/01 03:17:35;;;;;;;0.70;0.70;;;14.20;88.60;;;;;;5135609;27;20198;-63
2022/12/01 03:20:31;;;;;;;0.40;0.40;;;14.20;89.20;;;;;;5134834;27;20262;-64
2022/12/01 03:23:25;;;;;;;0.40;0.40;;;14.20;89.10;;;;;;5134922;27;20275;-64
2022/12/01 03:26:18;;;;;;;1.38;1.38;;;14.20;89.80;;;;;;5134248;27;20201;-64
2022/12/01 03:29:10;;;;;;;0.40;0.40;;;14.30;89.70;;;;;;5135133;27;20328;-64
2022/12/01 03:32:03;;;;;;;0.40;0.40;;;14.30;89.80;;;;;;5135435;27;20259;-63
2022/12/01 03:34:55;;;;;;;0.40;0.40;;;15.30;90.30;;;;;;5134952;27;20222;-63
2022/12/01 03:37:47;;;;;;;0.40;0.40;;;14.40;89.40;;;;;;5135737;27;20235;-63
2022/12/01 03:40:39;;;;;;;0.40;0.40;;;14.40;89.80;;;;;;5134755;27;20263;-65
2022/12/01 03:43:31;;;;;;;0.40;0.40;;;14.40;89.30;;;;;;5134745;27;20291;-65
2022/12/01 03:46:25;;;;;;;0.40;0.40;;;14.40;88.60;;;;;;5134845;27;20226;-64
2022/12/01 03:49:14;;;;;;;0.40;0.40;;;14.50;89.10;;;;;;5133633;27;20194;-63
2022/12/01 03:52:13;;;;;;;0.40;0.40;;;14.50;88.60;;;;;;5135227;27;20730;-65
2022/12/01 03:55:10;;;;;;;0.40;0.40;;;14.50;88.70;;;;;;5134177;27;20297;-65
2022/12/01 03:58:05;;;;;;;0.95;0.95;;;14.50;88.80;;;;;;5134641;27;20758;-64
2022/12/01 04:00:56;;;;;;;0.40;0.40;;;14.50;88.60;;;;;;5134078;27;20821;-64
2022/12/01 04:03:46;;;;;;;0.40;0.40;;;14.50;88.70;;;;;;5134471;27;20229;-64
2022/12/01 04:06:34;;;;;;;0.40;0.40;;;14.50;88.80;;;;;;5134154;27;20586;-64
2022/12/01 04:09:22;;;;;;;0.40;0.40;;;14.50;88.80;;;;;;5133603;27;20201;-64
2022/12/01 04:12:31;;;;;;;0.60;0.60;;;14.50;88.60;;;;;;5134180;27;20269;-64
2022/12/01 04:15:21;;;;;;;0.40;0.40;;;14.50;88.40;;;;;;5134491;27;20194;-63
2022/12/01 04:18:09;;;;;;;1.57;1.57;;;14.50;88.40;;;;;;5133268;27;20198;-64
2022/12/01 04:20:57;;;;;;;0.63;0.63;;;14.50;88.60;;;;;;5132975;27;20293;-64
2022/12/01 04:24:00;;;;;;;0.40;0.40;;;14.40;88.00;;;;;;5133130;27;20255;-64
2022/12/01 04:26:48;;;;;;;0.40;0.40;;;14.40;88.60;;;;;;5134072;27;20205;-65
2022/12/01 04:29:37;;;;;;;0.50;0.50;;;14.40;88.60;;;;;;5133274;27;20225;-63
2022/12/01 04:32:26;;;;;;;0.40;0.40;;;14.30;88.30;;;;;;5133236;27;20202;-63
2022/12/01 04:35:14;;;;;;;0.60;0.60;;;14.30;87.80;;;;;;5154309;22;20230;-62
2022/12/01 04:38:02;;;;;;;0.40;0.40;;;14.30;88.50;;;;;;5131280;27;20229;-62
2022/12/01 04:40:50;;;;;;;0.40;0.40;;;14.30;88.00;;;;;;5132468;27;20202;-62
2022/12/01 04:43:39;;;;;;;0.40;0.40;;;14.30;88.50;;;;;;5131012;27;20363;-62
2022/12/01 04:46:27;;;;;;;0.40;0.40;;;14.20;88.30;;;;;;5132857;27;20206;-62
2022/12/01 04:49:16;;;;;;;0.40;0.40;;;14.20;88.30;;;;;;5131121;27;20559;-62
2022/12/01 04:52:05;;;;;;;0.43;0.43;;;14.20;88.90;;;;;;5131650;27;20278;-62
2022/12/01 04:54:53;;;;;;;0.40;0.40;;;14.20;88.40;;;;;;5132977;27;20706;-62
2022/12/01 04:57:41;;;;;;;0.40;0.40;;;14.20;88.60;;;;;;5132707;27;20201;-62
2022/12/01 05:00:29;;;;;;;0.40;0.40;;;14.20;89.10;;;;;;5132531;27;20366;-62
2022/12/01 05:03:17;;;;;;;0.40;0.40;;;14.30;88.90;;;;;;5132372;27;20593;-62
2022/12/01 05:06:10;;;;;;;0.50;0.50;;;14.30;89.30;;;;;;5130897;28;20198;-62
2022/12/01 05:09:00;;;;;;;1.00;1.00;;;14.30;88.60;;;;;;5130500;28;20195;-62
2022/12/01 05:11:48;;;;;;;0.40;0.40;;;14.30;88.30;;;;;;5132629;28;20669;-62
2022/12/01 05:14:36;;;;;;;0.40;0.40;;;14.30;88.60;;;;;;5132573;28;20214;-62
2022/12/01 05:17:24;;;;;;;0.40;0.40;;;14.40;88.90;;;;;;5130891;28;20191;-61
2022/12/01 05:23:26;;;;;;;0.40;0.40;;;14.30;87.90;;;;;;5131095;28;20214;-61
2022/12/01 05:26:14;;;;;;;0.40;0.40;;;14.40;88.10;;;;;;5132389;28;20676;-62
2022/12/01 05:29:03;;;;;;;3.17;3.07;;;14.40;88.40;;;;;;5130593;28;20271;-62
2022/12/01 05:31:51;;;;;;;0.40;0.40;;;14.40;88.50;;;;;;5132333;28;20274;-62
2022/12/01 05:34:39;;;;;;;0.40;0.40;;;14.40;88.30;;;;;;5132035;28;20309;-62
2022/12/01 05:37:31;;;;;;;0.90;0.90;;;14.40;88.20;;;;;;5132234;28;20323;-62
2022/12/01 05:40:20;;;;;;;2.05;1.95;;;14.40;88.30;;;;;;5132041;28;20530;-62
2022/12/01 05:43:08;;;;;;;0.40;0.40;;;14.40;87.80;;;;;;5130865;28;20332;-62
2022/12/01 05:45:57;;;;;;;0.40;0.40;;;14.40;88.30;;;;;;5135222;27;20258;-62
2022/12/01 05:48:46;;;;;;;0.40;0.40;;;14.40;87.70;;;;;;5134675;27;20580;-62
2022/12/01 05:51:34;;;;;;;0.87;0.87;;;14.30;87.80;;;;;;5134317;27;20751;-62
2022/12/01 05:54:22;;;;;;;0.70;0.70;;;14.30;88.00;;;;;;5134442;27;20221;-62
2022/12/01 05:57:11;;;;;;;0.40;0.40;;;14.30;88.20;;;;;;5136136;27;20207;-62
2022/12/01 06:00:00;;;;;;;0.40;0.40;;;14.20;87.80;;;;;;5135953;27;20286;-62
2022/12/01 06:02:48;;;;;;;0.40;0.40;;;14.20;88.20;;;;;;5135314;27;20254;-62
2022/12/01 06:05:36;;;;;;;0.40;0.40;;;14.20;88.10;;;;;;5136660;27;20273;-62
2022/12/01 06:08:24;;;;;;;0.40;0.40;;;14.20;88.20;;;;;;5133824;27;20226;-62
2022/12/01 06:11:12;;;;;;;0.60;0.60;;;14.20;87.80;;;;;;5136042;27;20336;-62
2022/12/01 06:14:02;;;;;;;0.40;0.40;;;14.20;88.10;;;;;;5133780;27;20271;-62
2022/12/01 06:16:50;;;;;;;0.40;0.40;;;14.20;88.50;;;;;;5133975;27;20209;-62
2022/12/01 06:19:38;;;;;;;0.50;0.50;;;14.20;88.50;;;;;;5133782;27;20693;-62
2022/12/01 06:22:26;;;;;;;0.40;0.40;;;14.10;88.30;;;;;;5135640;27;20755;-62
2022/12/01 06:25:14;;;;;;;0.40;0.40;;;14.20;88.50;;;;;;5135384;27;20297;-62
2022/12/01 06:28:02;;;;;;;0.40;0.40;;;14.20;88.40;;;;;;5135670;27;20704;-62
2022/12/01 06:30:51;;;;;;;0.40;0.40;;;14.20;88.10;;;;;;5133369;27;20585;-62
2022/12/01 06:33:46;;;;;;;3.47;3.37;;;14.30;88.70;;;;;;5134019;27;20223;-62
2022/12/01 06:36:34;;;;;;;0.40;0.40;;;14.30;88.70;;;;;;5135656;27;20324;-62
2022/12/01 06:39:22;;;;;;;0.40;0.40;;;14.30;88.70;;;;;;5129319;27;20487;-62
2022/12/01 06:42:10;;;;;;;2.50;2.40;;;14.30;88.50;;;;;;5114623;28;20298;-62
2022/12/01 06:44:58;;;;;;;0.40;0.40;;;14.30;88.20;;;;;;5113844;28;20227;-62
2022/12/01 06:47:49;;;;;;;0.40;0.40;;;14.30;88.00;;;;;;5114037;28;20198;-62
2022/12/01 06:50:37;;;;;;;0.40;0.40;;;14.30;88.00;;;;;;5114496;28;20199;-61
2022/12/01 06:53:26;;;;;;;0.70;0.70;;;14.30;88.00;;;;;;5114392;28;20192;-62
2022/12/01 06:56:15;;;;;;;0.40;0.40;;;14.30;88.30;;;;;;5114602;27;20222;-62
2022/12/01 06:59:03;;;;;;;0.40;0.40;;;14.30;88.20;;;;;;5114143;28;20195;-62
2022/12/01 07:01:51;;;;;;;0.40;0.40;;;14.40;88.10;;;;;;5116856;27;20329;-62
2022/12/01 07:04:41;;;;;;;1.67;1.60;;;14.40;87.20;;;;;;5121183;27;20223;-62
2022/12/01 07:07:29;;;;;;;0.40;0.40;;;14.40;87.70;;;;;;5118729;27;20669;-62
2022/12/01 07:10:17;;;;;;;2.63;2.20;;;14.40;87.60;;;;;;5112885;28;20280;-62
2022/12/01 07:13:05;;;;;;;0.40;0.40;;;14.40;88.00;;;;;;5113294;28;20277;-62
2022/12/01 07:15:54;;;;;;;0.40;0.40;;;14.40;87.40;;;;;;5114850;28;20278;-62
2022/12/01 07:18:43;;;;;;;0.40;0.40;;;14.30;87.50;;;;;;5114571;28;20199;-62
2022/12/01 07:21:32;;;;;;;0.40;0.40;;;14.30;88.10;;;;;;5113758;28;20195;-62
2022/12/01 07:24:20;;;;;;;0.40;0.40;;;14.30;87.60;;;;;;5113796;28;20303;-62
2022/12/01 07:27:08;;;;;;;0.40;0.40;;;14.30;87.80;;;;;;5113611;28;20734;-62
2022/12/01 07:29:56;;;;;;;0.40;0.40;;;14.30;87.90;;;;;;5118786;27;20273;-62
2022/12/01 07:32:44;;;;;;;0.40;0.40;;;14.30;88.10;;;;;;5133421;27;20222;-62
2022/12/01 07:35:32;;;;;;;0.40;0.40;;;14.20;87.70;;;;;;5133203;27;20228;-62
2022/12/01 07:38:29;;;;;;;0.50;0.50;;;14.20;88.80;;;;;;5131876;27;20284;-62
2022/12/01 07:41:19;;;;;;;0.40;0.40;;;14.20;88.40;;;;;;5132119;27;20276;-63
2022/12/01 07:44:09;;;;;;;0.40;0.40;;;14.20;88.30;;;;;;5133035;27;20221;-63
2022/12/01 07:46:57;;;;;;;0.40;0.40;;;14.20;88.10;;;;;;5133226;27;20205;-63
2022/12/01 07:49:45;;;;;;;0.87;0.87;;;14.20;87.50;;;;;;5133447;27;20202;-63
2022/12/01 07:52:34;;;;;;;0.40;0.40;;;14.20;88.90;;;;;;5133149;27;20198;-63
2022/12/01 07:55:23;;;;;;;0.40;0.40;;;14.30;90.00;;;;;;5133461;27;20222;-63
2022/12/01 07:58:11;;;;;;;0.50;0.50;;;14.50;90.00;;;;;;5116502;27;20203;-63
2022/12/01 08:01:06;;;;;;;12.87;6.93;;;14.70;90.00;;;;;;5112324;28;20195;-62
2022/12/01 08:03:56;;;;;;;0.40;0.40;;;14.80;89.50;;;;;;5112122;28;20230;-63
2022/12/01 08:06:44;;;;;;;0.40;0.40;;;14.90;89.00;;;;;;5112384;28;20671;-63
2022/12/01 08:09:32;;;;;;;1.25;1.25;;;15.00;88.50;;;;;;5112113;28;20290;-63
2022/12/01 08:12:22;;;;;;;0.40;0.40;;;15.10;88.80;;;;;;5113409;28;20316;-63
2022/12/01 08:15:10;;;;;;;6.18;4.60;;;15.10;88.30;;;;;;5120508;27;20352;-63
2022/12/01 08:18:01;;;;;;;2.57;2.43;;;15.10;88.20;;;;;;5121735;27;20282;-63
2022/12/01 08:20:49;;;;;;;0.40;0.40;;;15.20;88.10;;;;;;5132542;27;20230;-63
2022/12/01 08:23:37;;;;;;;0.40;0.40;;;16.60;89.60;;;;;;5131668;27;20219;-63
2022/12/01 08:26:26;;;;;;;0.40;0.40;;;15.30;87.50;;;;;;5112736;28;20286;-63
2022/12/01 08:29:16;;;;;;;0.40;0.40;;;15.30;87.70;;;;;;5111972;28;20288;-63
2022/12/01 08:32:07;;;;;;;0.40;0.40;;;15.30;87.20;;;;;;5111741;28;20203;-62
2022/12/01 08:34:55;;;;;;;0.40;0.40;;;15.30;87.30;;;;;;5114446;27;20256;-63
2022/12/01 08:37:43;;;;;;;0.40;0.40;;;15.20;87.10;;;;;;5122277;27;20278;-63
2022/12/01 08:40:32;;;;;;;2.53;2.42;;;15.20;87.20;;;;;;5110694;28;20201;-63
2022/12/01 08:43:20;;;;;;;0.60;0.50;;;15.10;88.60;;;;;;5128439;27;20738;-63
2022/12/01 08:46:33;;;;;;;0.40;0.40;;;15.10;87.10;;;;;;5121584;27;20210;-63
2022/12/01 08:49:21;;;;;;;0.40;0.40;;;15.10;86.80;;;;;;5131068;27;20283;-63
2022/12/01 08:52:09;;;;;;;0.40;0.40;;;15.10;86.50;;;;;;5132284;27;20692;-63
2022/12/01 08:54:57;;;;;;;1.30;1.30;;;15.00;86.60;;;;;;5111117;28;20301;-63
2022/12/01 08:57:45;;;;;;;0.40;0.40;;;15.00;86.60;;;;;;5125279;27;20194;-63
2022/12/01 09:00:33;;;;;;;0.50;0.50;;;15.00;87.20;;;;;;5131966;27;20281;-63
2022/12/01 09:03:23;;;;;;;0.40;0.40;;;14.90;86.30;;;;;;5131913;27;20320;-63
2022/12/01 09:06:13;;;;;;;0.40;0.40;;;14.90;87.00;;;;;;5132749;28;20203;-62
2022/12/01 09:09:01;;;;;;;0.65;0.65;;;14.90;87.20;;;;;;5133070;28;20215;-63
2022/12/01 09:11:51;;;;;;;0.40;0.40;;;14.80;87.00;;;;;;5130665;28;20198;-63
2022/12/01 09:14:40;;;;;;;0.40;0.40;;;14.80;87.20;;;;;;5125986;28;20302;-63
2022/12/01 09:17:28;;;;;;;0.40;0.40;;;14.80;87.30;;;;;;5127448;28;20289;-63
2022/12/01 09:20:18;;;;;;;0.40;0.40;;;14.70;87.10;;;;;;5132971;27;20275;-62
2022/12/01 09:23:06;;;;;;;0.57;0.57;;;14.70;87.30;;;;;;5132132;27;20212;-63
2022/12/01 09:25:54;;;;;;;0.63;0.63;;;14.70;87.10;;;;;;5135058;27;20202;-63
2022/12/01 09:28:42;;;;;;;0.40;0.40;;;14.60;87.30;;;;;;5135410;27;20291;-63
2022/12/01 09:31:30;;;;;;;0.40;0.40;;;14.60;87.90;;;;;;5134753;27;20273;-62
2022/12/01 09:34:19;;;;;;;0.40;0.40;;;14.60;87.70;;;;;;5114119;28;20703;-62
2022/12/01 09:37:10;;;;;;;0.40;0.40;;;14.50;87.50;;;;;;5114556;28;20321;-63
2022/12/01 09:39:58;;;;;;;0.40;0.40;;;14.50;87.40;;;;;;5125784;27;20211;-63
2022/12/01 09:42:47;;;;;;;0.40;0.40;;;14.50;87.70;;;;;;5135797;27;20202;-63
2022/12/01 09:45:40;;;;;;;1.00;1.00;;;14.60;87.80;;;;;;5136200;27;20218;-63
2022/12/01 09:48:31;;;;;;;1.05;1.05;;;14.50;87.80;;;;;;5135012;27;20685;-63
2022/12/01 09:51:22;;;;;;;0.50;0.50;;;14.50;87.70;;;;;;5134973;27;20202;-63
2022/12/01 09:54:13;;;;;;;0.40;0.40;;;14.50;87.90;;;;;;5135573;27;20709;-63
2022/12/01 09:57:01;;;;;;;1.10;1.10;;;14.50;88.30;;;;;;5128791;27;20191;-63
2022/12/01 09:59:51;;;;;;;0.40;0.40;;;14.50;88.30;;;;;;5114320;28;20282;-62
2022/12/01 10:02:42;;;;;;;1.00;1.00;;;14.50;88.60;;;;;;5118768;27;20221;-63
2022/12/01 10:05:42;;;;;;;0.40;0.40;;;14.50;88.80;;;;;;5126761;27;20223;-63
2022/12/01 10:09:00;;;;;;;0.40;0.40;;;14.50;88.40;;;;;;5115045;28;20202;-63
2022/12/01 10:11:54;;;;;;;0.50;0.50;;;14.50;87.70;;;;;;5114512;28;20219;-63
2022/12/01 10:14:44;;;;;;;0.40;0.40;;;14.50;88.10;;;;;;5114518;28;20226;-63
2022/12/01 10:17:41;;;;;;;0.40;0.40;;;14.50;87.50;;;;;;5114670;28;20286;-63
2022/12/01 10:20:36;;;;;;;0.40;0.40;;;14.40;87.80;;;;;;5113820;28;20282;-63
2022/12/01 10:23:41;;;;;;;0.40;0.40;;;14.30;87.60;;;;;;5116717;27;20211;-62
2022/12/01 10:26:34;;;;;;;0.40;0.40;;;14.40;87.50;;;;;;5120616;27;20273;-63
2022/12/01 10:29:31;;;;;;;0.90;0.90;;;14.30;87.80;;;;;;5121152;27;20199;-63
2022/12/01 10:32:23;;;;;;;0.70;0.70;;;14.30;87.70;;;;;;5118193;27;20243;-63
2022/12/01 10:35:20;;;;;;;0.82;0.82;;;14.30;86.80;;;;;;5124201;22;20266;-65
2022/12/01 10:38:19;;;;;;;0.40;0.40;;;14.30;88.30;;;;;;5076462;28;20196;-66
2022/12/01 10:41:14;;;;;;;0.40;0.40;;;14.30;87.90;;;;;;5075853;28;20281;-65
2022/12/01 10:44:05;;;;;;;0.40;0.40;;;14.30;88.30;;;;;;5072072;28;20217;-65
2022/12/01 10:46:56;;;;;;;0.70;0.70;;;14.30;87.90;;;;;;5055163;28;20657;-65
2022/12/01 10:49:44;;;;;;;0.70;0.70;;;14.30;88.00;;;;;;5053904;28;20565;-65
2022/12/01 10:52:37;;;;;;;1.75;1.75;;;14.30;88.10;;;;;;5053627;28;20318;-65
2022/12/01 10:55:28;;;;;;;0.40;0.40;;;14.20;87.70;;;;;;5052461;28;20224;-65
2022/12/01 10:58:18;;;;;;;1.13;1.13;;;14.20;88.00;;;;;;5053837;28;20201;-65
2022/12/01 11:01:06;;;;;;;8.80;8.27;;;14.20;88.60;;;;;;5053305;28;20331;-65
2022/12/01 11:03:58;;;;;;;0.40;0.40;;;14.30;88.60;;;;;;5052582;28;20697;-65
2022/12/01 11:06:49;;;;;;;0.40;0.40;;;14.30;88.70;;;;;;5052981;28;20212;-65
2022/12/01 11:09:37;;;;;;;0.40;0.40;;;14.40;89.50;;;;;;5054574;28;20197;-66
2022/12/01 11:12:26;;;;;;;0.40;0.40;;;14.50;89.00;;;;;;5054336;28;20244;-66
2022/12/01 11:15:26;;;;;;;4.50;1.98;;;14.50;89.10;;;;;;5055277;28;20300;-66
2022/12/01 11:18:22;;;;;;;0.40;0.40;;;14.50;88.70;;;;;;5054691;28;20580;-65
2022/12/01 11:21:15;;;;;;;0.40;0.40;;;14.60;88.30;;;;;;5054466;28;20582;-65
2022/12/01 11:24:24;;;;;;;0.40;0.40;;;14.70;88.80;;;;;;5053236;28;20224;-66
2022/12/01 11:27:17;;;;;;;0.40;0.40;;;14.70;88.10;;;;;;5051743;28;20276;-65
2022/12/01 11:30:19;;;;;;;0.40;0.40;;;14.70;87.70;;;;;;5053673;28;20205;-65
2022/12/01 11:33:16;;;;;;;0.40;0.40;;;14.80;87.40;;;;;;5053730;28;20219;-65
2022/12/01 11:36:05;;;;;;;0.40;0.40;;;14.80;87.50;;;;;;5053581;28;20312;-65
2022/12/01 11:38:59;;;;;;;0.40;0.40;;;14.80;87.40;;;;;;5053889;28;20225;-65
2022/12/01 11:41:47;;;;;;;0.40;0.40;;;14.80;87.60;;;;;;5051617;28;20201;-65
2022/12/01 11:44:35;;;;;;;0.40;0.40;;;14.90;87.50;;;;;;5052824;28;20328;-65
2022/12/01 11:48:03;;;;;;;0.50;0.50;;;14.90;87.20;;;;;;5052900;28;20288;-66
2022/12/01 11:51:02;;;;;;;0.50;0.50;;;14.90;87.20;;;;;;5053809;28;20291;-65
2022/12/01 11:54:07;;;;;;;0.40;0.40;;;14.90;87.00;;;;;;5053120;28;20717;-65
2022/12/01 11:56:55;;;;;;;0.40;0.40;;;14.80;86.80;;;;;;5053037;28;20263;-66
2022/12/01 12:00:13;;;;;;;0.40;0.40;;;14.80;86.60;;;;;;5052413;28;20586;-65
2022/12/01 12:03:12;;;;;;;0.40;0.40;;;14.80;86.80;;;;;;5052792;28;20281;-65
2022/12/01 12:06:21;;;;;;;0.40;0.40;;;14.80;86.70;;;;;;5054977;28;20275;-65
2022/12/01 12:09:49;;;;;;;0.40;0.40;;;14.70;86.70;;;;;;5053682;28;20556;-65
2022/12/01 12:12:53;;;;;;;0.40;0.40;;;14.70;86.80;;;;;;5053562;28;20208;-65
2022/12/01 12:15:54;;;;;;;5.10;4.78;;;14.70;86.60;;;;;;5052954;28;20736;-65
2022/12/01 12:19:05;;;;;;;0.40;0.40;;;14.70;86.40;;;;;;5054097;28;20676;-65
2022/12/01 12:22:04;;;;;;;1.10;1.10;;;14.60;87.00;;;;;;5053776;28;20239;-65
2022/12/01 12:25:08;;;;;;;0.40;0.40;;;14.60;87.00;;;;;;5054398;28;20660;-65
2022/12/01 12:28:09;;;;;;;0.40;0.40;;;14.60;87.20;;;;;;5051687;28;20201;-65
2022/12/01 12:31:07;;;;;;;2.10;2.00;;;14.60;86.90;;;;;;5052985;28;20294;-65
2022/12/01 12:34:12;;;;;;;0.40;0.40;;;14.50;87.10;;;;;;5054163;28;20240;-66
2022/12/01 12:37:10;;;;;;;0.40;0.40;;;14.50;87.40;;;;;;5070152;28;20256;-66
2022/12/01 12:40:30;;;;;;;1.23;1.17;;;14.50;87.20;;;;;;5071658;28;20217;-66
2022/12/01 12:43:23;;;;;;;0.40;0.40;;;14.50;87.20;;;;;;5070348;28;20268;-66
2022/12/01 12:46:16;;;;;;;0.40;0.40;;;14.40;86.80;;;;;;5071612;28;20221;-66
2022/12/01 12:49:20;;;;;;;0.40;0.40;;;14.50;87.40;;;;;;5073039;28;20629;-67
2022/12/01 12:52:13;;;;;;;20.37;18.47;;;14.50;87.30;;;;;;5072226;28;20223;-65
2022/12/01 12:55:10;;;;;;;0.40;0.40;;;14.50;87.60;;;;;;5072019;28;20237;-66
2022/12/01 12:58:05;;;;;;;0.40;0.40;;;14.50;87.70;;;;;;5072875;28;20236;-66
2022/12/01 13:01:08;;;;;;;0.40;0.40;;;14.50;87.80;;;;;;5071572;28;20208;-67
2022/12/01 13:04:00;;;;;;;1.07;1.07;;;14.60;87.40;;;;;;5073002;28;20236;-66
2022/12/01 13:06:52;;;;;;;0.40;0.40;;;14.60;87.70;;;;;;5070774;28;20277;-67
2022/12/01 13:09:44;;;;;;;0.40;0.40;;;14.70;87.10;;;;;;5071788;28;20201;-66
2022/12/01 13:12:36;;;;;;;1.03;1.03;;;14.70;87.00;;;;;;5065026;28;20201;-65
2022/12/01 13:15:27;;;;;;;0.40;0.40;;;14.80;87.60;;;;;;5052138;28;20221;-65
2022/12/01 13:18:26;;;;;;;3.80;3.50;;;14.80;87.10;;;;;;5053321;28;20276;-65
2022/12/01 13:21:18;;;;;;;0.40;0.40;;;14.90;87.00;;;;;;5052809;28;20288;-66
2022/12/01 13:24:07;;;;;;;0.40;0.40;;;14.90;86.80;;;;;;5053171;28;20487;-64
2022/12/01 13:27:00;;;;;;;1.70;1.60;;;14.80;86.90;;;;;;5052525;28;20216;-65
2022/12/01 13:29:51;;;;;;;0.40;0.40;;;14.90;86.60;;;;;;5051877;28;20284;-65
2022/12/01 13:32:41;;;;;;;0.40;0.40;;;14.90;86.60;;;;;;5051487;28;20236;-65
2022/12/01 13:35:32;;;;;;;0.40;0.40;;;14.90;86.50;;;;;;5051381;28;20452;-65
2022/12/01 13:38:28;;;;;;;0.40;0.40;;;14.80;86.40;;;;;;5053210;28;20231;-65
2022/12/01 13:41:24;;;;;;;0.40;0.40;;;14.80;86.50;;;;;;5051891;28;20696;-65
2022/12/01 13:44:22;;;;;;;0.40;0.40;;;14.80;86.30;;;;;;5053005;28;20271;-64
2022/12/01 13:47:39;;;;;;;0.40;0.40;;;14.80;86.50;;;;;;5053324;28;20221;-65
2022/12/01 13:50:57;;;;;;;0.40;0.40;;;14.80;86.20;;;;;;5053248;28;20202;-65
2022/12/01 13:54:03;;;;;;;1.85;1.77;;;14.70;86.60;;;;;;5056411;28;20206;-65
2022/12/01 13:57:01;;;;;;;0.77;0.77;;;14.70;86.80;;;;;;5064766;28;20260;-65
2022/12/01 14:00:19;;;;;;;0.40;0.40;;;14.70;86.90;;;;;;5063738;28;20276;-65
2022/12/01 14:03:32;;;;;;;0.40;0.40;;;14.70;87.20;;;;;;5053700;28;20202;-65
2022/12/01 14:06:26;;;;;;;0.40;0.40;;;14.60;86.90;;;;;;5054396;28;20763;-65
2022/12/01 14:09:21;;;;;;;0.50;0.50;;;14.60;86.90;;;;;;5056173;28;20247;-65
2022/12/01 14:12:17;;;;;;;1.83;1.73;;;14.60;87.00;;;;;;5054983;28;20208;-65
2022/12/01 14:15:28;;;;;;;1.47;1.47;;;14.60;87.00;;;;;;5054905;28;20221;-65
2022/12/01 14:18:32;;;;;;;2.40;2.30;;;14.50;86.60;;;;;;5054688;28;20285;-65
2022/12/01 14:21:45;;;;;;;0.40;0.40;;;14.50;86.90;;;;;;5054579;28;20280;-65
2022/12/01 14:24:36;;;;;;;0.40;0.40;;;14.50;87.00;;;;;;5055772;28;20279;-64
2022/12/01 14:27:37;;;;;;;0.40;0.40;;;14.50;87.50;;;;;;5055299;28;20218;-64
2022/12/01 14:31:03;;;;;;;0.40;0.40;;;14.40;87.20;;;;;;5065563;28;20228;-64
2022/12/01 14:33:53;;;;;;;2.47;2.37;;;14.40;86.90;;;;;;5061597;28;20225;-65
2022/12/01 14:36:44;;;;;;;0.40;0.40;;;14.40;87.10;;;;;;5057679;28;20212;-64
2022/12/01 14:39:35;;;;;;;0.50;0.50;;;14.40;86.90;;;;;;5058133;28;20201;-64
2022/12/01 14:45:41;;;;;;;0.40;0.40;;;14.40;87.60;;;;;;5061475;28;20225;-65
2022/12/01 14:48:37;;;;;;;0.40;0.40;;;14.40;87.40;;;;;;5073032;28;20200;-64
2022/12/01 14:51:27;;;;;;;0.40;0.40;;;14.40;86.90;;;;;;5071872;28;20326;-64
2022/12/01 14:54:23;;;;;;;0.60;0.60;;;14.40;87.70;;;;;;5074034;28;20276;-64
2022/12/01 14:57:15;;;;;;;0.40;0.40;;;14.40;87.60;;;;;;5071553;28;20245;-65
2022/12/01 15:00:07;;;;;;;0.40;0.40;;;14.30;87.10;;;;;;5066107;28;20624;-64
2022/12/01 15:02:57;;;;;;;0.40;0.40;;;14.40;87.40;;;;;;5055456;28;20239;-65
2022/12/01 15:05:46;;;;;;;0.40;0.40;;;14.40;87.10;;;;;;5056123;28;20310;-65
2022/12/01 15:08:36;;;;;;;0.40;0.40;;;14.40;87.40;;;;;;5054089;28;20283;-64